Time;durP1;ratioP1;P1;durP2;ratioP2;P2;SDS_P1;SDS_P2;PMS_P1;PMS_P2;Temp;Humidity;BMP_temperature;BMP_pressure;BME280_temperature;BME280_humidity;BME280_pressure;Samples;Min_cycle;Max_cycle;Signal;HPM_P1;HPM_P2
2021/04/04 00:01:03;;;;;;;14.80;3.30;;;;;;;;;;5059930;28;33626;-76
2021/04/04 00:03:29;;;;;;;19.88;3.58;;;;;;;;;;5058943;28;32619;-79
2021/04/04 00:05:55;;;;;;;17.02;3.72;;;;;;;;;;5060492;28;32112;-76
2021/04/04 00:08:20;;;;;;;16.98;4.05;;;;;;;;;;5059233;28;31982;-78
2021/04/04 00:10:46;;;;;;;17.83;3.85;;;;;;;;;;5059914;28;33330;-72
2021/04/04 00:13:12;;;;;;;21.80;3.65;;;;;;;;;;5059344;28;32398;-73
2021/04/04 00:15:40;;;;;;;18.25;3.85;;;;;;;;;;5059707;28;31345;-76
2021/04/04 00:18:06;;;;;;;20.10;3.58;;;;;;;;;;5059618;28;32971;-73
2021/04/04 00:20:32;;;;;;;15.25;4.07;;;;;;;;;;5058903;28;32498;-79
2021/04/04 00:22:57;;;;;;;17.48;3.78;;;;;;;;;;5059271;28;33198;-74
2021/04/04 00:25:23;;;;;;;17.55;4.82;;;;;;;;;;5058010;28;31904;-75
2021/04/04 00:27:49;;;;;;;18.92;4.10;;;;;;;;;;5056952;28;32042;-72
2021/04/04 00:30:16;;;;;;;26.02;3.67;;;;;;;;;;5057702;28;32460;-72
2021/04/04 00:32:42;;;;;;;21.15;3.60;;;;;;;;;;5058502;28;31452;-72
2021/04/04 00:35:08;;;;;;;22.35;4.60;;;;;;;;;;5058434;28;32764;-73
2021/04/04 00:37:36;;;;;;;17.30;4.05;;;;;;;;;;5058753;28;32058;-72
2021/04/04 00:40:05;;;;;;;14.98;4.20;;;;;;;;;;5058151;28;32702;-71
2021/04/04 00:42:30;;;;;;;14.38;4.10;;;;;;;;;;5058764;28;31691;-72
2021/04/04 00:44:56;;;;;;;22.42;4.15;;;;;;;;;;5057440;28;31929;-72
2021/04/04 00:47:22;;;;;;;17.23;3.70;;;;;;;;;;5060520;28;43518;-74
2021/04/04 00:49:47;;;;;;;25.00;4.30;;;;;;;;;;5062052;28;32565;-72
2021/04/04 00:52:13;;;;;;;20.80;4.28;;;;;;;;;;5061663;28;32422;-72
2021/04/04 00:54:39;;;;;;;19.30;4.35;;;;;;;;;;5061783;28;32897;-72
2021/04/04 00:57:05;;;;;;;17.65;4.22;;;;;;;;;;5062241;28;32625;-72
2021/04/04 00:59:31;;;;;;;29.20;4.65;;;;;;;;;;5061310;28;33429;-71
2021/04/04 01:01:56;;;;;;;22.42;4.85;;;;;;;;;;5061295;28;31952;-71
2021/04/04 01:04:22;;;;;;;23.33;5.28;;;;;;;;;;5060867;28;32114;-72
2021/04/04 01:06:48;;;;;;;17.10;4.38;;;;;;;;;;5061911;28;32212;-72
2021/04/04 01:09:14;;;;;;;20.17;4.35;;;;;;;;;;5060905;28;32379;-72
2021/04/04 01:11:43;;;;;;;16.92;4.43;;;;;;;;;;5061319;28;32261;-75
2021/04/04 01:14:16;;;;;;;23.15;4.90;;;;;;;;;;5060516;28;32889;-72
2021/04/04 01:16:44;;;;;;;24.25;4.65;;;;;;;;;;5060801;28;32758;-72
2021/04/04 01:19:15;;;;;;;21.40;4.88;;;;;;;;;;5061204;28;32695;-72
2021/04/04 01:21:46;;;;;;;15.15;4.20;;;;;;;;;;5061817;28;32192;-73
2021/04/04 01:24:30;;;;;;;23.52;5.03;;;;;;;;;;5059760;28;31923;-74
2021/04/04 01:26:56;;;;;;;19.42;4.47;;;;;;;;;;5060278;28;33101;-72
2021/04/04 01:29:23;;;;;;;21.20;4.35;;;;;;;;;;5060465;28;32644;-75
2021/04/04 01:31:51;;;;;;;23.48;4.75;;;;;;;;;;5060828;28;33246;-72
2021/04/04 01:34:18;;;;;;;15.15;4.22;;;;;;;;;;5059436;28;30346;-72
2021/04/04 01:36:45;;;;;;;16.65;4.03;;;;;;;;;;5059348;28;31741;-72
2021/04/04 01:39:12;;;;;;;20.23;4.28;;;;;;;;;;5060550;28;32605;-72
2021/04/04 01:41:39;;;;;;;22.90;4.35;;;;;;;;;;5061073;28;32227;-72
2021/04/04 01:44:07;;;;;;;19.88;4.63;;;;;;;;;;5060279;28;32903;-72
2021/04/04 01:46:33;;;;;;;13.75;4.32;;;;;;;;;;5060834;28;32160;-73
2021/04/04 01:48:59;;;;;;;24.08;4.45;;;;;;;;;;5060825;28;32607;-72
2021/04/04 01:51:25;;;;;;;18.17;5.28;;;;;;;;;;5061192;28;33233;-72
2021/04/04 01:53:52;;;;;;;22.88;4.97;;;;;;;;;;5060819;28;31812;-72
2021/04/04 01:56:18;;;;;;;18.95;5.20;;;;;;;;;;5060771;28;32086;-72
2021/04/04 01:58:44;;;;;;;22.75;4.70;;;;;;;;;;5060320;28;32308;-74
2021/04/04 02:01:10;;;;;;;20.83;4.80;;;;;;;;;;5061000;28;32169;-72
2021/04/04 02:03:36;;;;;;;27.38;5.63;;;;;;;;;;5060813;28;32011;-72
2021/04/04 02:06:03;;;;;;;19.30;4.85;;;;;;;;;;5059967;28;30643;-74
2021/04/04 02:08:29;;;;;;;19.02;5.03;;;;;;;;;;5060665;28;32494;-73
2021/04/04 02:10:56;;;;;;;19.92;5.15;;;;;;;;;;5059159;28;32139;-72
2021/04/04 02:13:22;;;;;;;21.17;5.03;;;;;;;;;;5060456;28;32066;-72
2021/04/04 02:15:48;;;;;;;21.52;6.20;;;;;;;;;;5059547;28;31553;-76
2021/04/04 02:18:14;;;;;;;19.27;5.10;;;;;;;;;;5060240;28;33550;-72
2021/04/04 02:20:41;;;;;;;19.15;5.10;;;;;;;;;;5060561;28;32281;-71
2021/04/04 02:23:09;;;;;;;16.08;4.95;;;;;;;;;;5062622;28;31797;-72
2021/04/04 02:25:35;;;;;;;11.18;4.75;;;;;;;;;;5064059;28;32943;-72
2021/04/04 02:28:01;;;;;;;18.95;5.68;;;;;;;;;;5062334;28;32511;-74
2021/04/04 02:30:27;;;;;;;17.50;5.10;;;;;;;;;;5058910;28;31856;-73
2021/04/04 02:33:16;;;;;;;30.73;5.45;;;;;;;;;;5059764;28;31963;-72
2021/04/04 02:35:42;;;;;;;21.00;5.80;;;;;;;;;;5058438;28;31945;-75
2021/04/04 02:38:31;;;;;;;19.25;5.38;;;;;;;;;;5060142;28;32599;-76
2021/04/04 02:40:58;;;;;;;19.80;5.22;;;;;;;;;;5059867;28;33261;-74
2021/04/04 02:43:26;;;;;;;23.23;5.13;;;;;;;;;;5060397;28;31510;-77
2021/04/04 02:45:53;;;;;;;18.20;5.18;;;;;;;;;;5060242;28;32057;-73
2021/04/04 02:48:23;;;;;;;15.85;5.20;;;;;;;;;;5059456;28;32613;-73
2021/04/04 02:50:50;;;;;;;19.58;5.85;;;;;;;;;;5058250;28;31407;-72
2021/04/04 02:53:16;;;;;;;37.90;6.75;;;;;;;;;;5060009;28;31893;-76
2021/04/04 02:55:42;;;;;;;20.77;5.32;;;;;;;;;;5059626;28;31997;-72
2021/04/04 02:58:09;;;;;;;16.73;4.72;;;;;;;;;;5060916;28;32210;-72
2021/04/04 03:00:36;;;;;;;16.83;4.18;;;;;;;;;;5057974;28;32824;-72
2021/04/04 03:03:03;;;;;;;29.90;6.40;;;;;;;;;;5060022;28;31611;-72
2021/04/04 03:05:29;;;;;;;19.48;4.82;;;;;;;;;;5059221;28;32087;-72
2021/04/04 03:07:57;;;;;;;19.75;4.72;;;;;;;;;;5059705;28;32054;-72
2021/04/04 03:10:23;;;;;;;20.75;4.93;;;;;;;;;;5059128;28;33156;-73
2021/04/04 03:12:50;;;;;;;16.05;4.78;;;;;;;;;;5059946;28;32009;-72
2021/04/04 03:15:17;;;;;;;17.42;5.03;;;;;;;;;;5059123;28;32137;-72
2021/04/04 03:17:43;;;;;;;21.52;5.93;;;;;;;;;;5058790;28;32518;-72
2021/04/04 03:20:10;;;;;;;15.02;4.25;;;;;;;;;;5059113;28;32450;-72
2021/04/04 03:22:37;;;;;;;17.15;5.13;;;;;;;;;;5057726;28;30429;-71
2021/04/04 03:25:04;;;;;;;23.88;6.00;;;;;;;;;;5059223;28;32501;-71
2021/04/04 03:27:29;;;;;;;17.05;4.70;;;;;;;;;;5059755;28;32475;-73
2021/04/04 03:29:55;;;;;;;15.65;4.53;;;;;;;;;;5058529;28;32328;-72
2021/04/04 03:32:21;;;;;;;14.48;4.35;;;;;;;;;;5058443;28;31990;-75
2021/04/04 03:34:47;;;;;;;13.27;4.55;;;;;;;;;;5057917;28;32149;-72
2021/04/04 03:37:13;;;;;;;20.85;5.18;;;;;;;;;;5058258;28;32517;-71
2021/04/04 03:39:39;;;;;;;16.92;4.88;;;;;;;;;;5056651;28;31389;-72
2021/04/04 03:42:05;;;;;;;16.52;4.53;;;;;;;;;;5058358;28;33052;-72
2021/04/04 03:44:32;;;;;;;24.23;6.00;;;;;;;;;;5055557;28;33055;-72
2021/04/04 03:46:58;;;;;;;18.15;4.88;;;;;;;;;;5057291;28;32505;-75
2021/04/04 03:49:24;;;;;;;15.18;5.10;;;;;;;;;;5058207;28;31915;-73
2021/04/04 03:51:54;;;;;;;17.50;4.68;;;;;;;;;;5060040;28;32005;-71
2021/04/04 03:54:20;;;;;;;19.52;5.07;;;;;;;;;;5059366;28;32958;-72
2021/04/04 03:56:47;;;;;;;25.73;5.22;;;;;;;;;;5059250;28;33505;-71
2021/04/04 03:59:13;;;;;;;22.60;5.63;;;;;;;;;;5059489;28;32222;-73
2021/04/04 04:01:41;;;;;;;18.58;4.85;;;;;;;;;;5055920;28;32214;-71
2021/04/04 04:04:07;;;;;;;15.63;4.50;;;;;;;;;;5058837;28;32251;-75
2021/04/04 04:06:33;;;;;;;20.08;4.63;;;;;;;;;;5056704;28;32616;-72
2021/04/04 04:09:02;;;;;;;17.95;5.57;;;;;;;;;;5058238;28;32370;-71
2021/04/04 04:11:27;;;;;;;15.95;5.28;;;;;;;;;;5059519;28;32002;-71
2021/04/04 04:13:54;;;;;;;16.55;5.28;;;;;;;;;;5056419;28;32111;-72
2021/04/04 04:16:20;;;;;;;18.55;4.28;;;;;;;;;;5058765;28;32469;-72
2021/04/04 04:18:46;;;;;;;35.30;5.57;;;;;;;;;;5055801;28;33112;-74
2021/04/04 04:21:12;;;;;;;15.15;4.63;;;;;;;;;;5056172;28;32174;-72
2021/04/04 04:23:38;;;;;;;10.07;4.28;;;;;;;;;;5062256;28;33015;-72
2021/04/04 04:26:04;;;;;;;12.93;4.07;;;;;;;;;;5058165;28;33550;-72
2021/04/04 04:28:30;;;;;;;13.40;4.57;;;;;;;;;;5060515;28;30728;-73
2021/04/04 04:30:56;;;;;;;17.27;4.70;;;;;;;;;;5058778;28;32115;-74
2021/04/04 04:33:22;;;;;;;14.55;4.28;;;;;;;;;;5061725;28;32953;-77
2021/04/04 04:35:49;;;;;;;16.70;4.57;;;;;;;;;;5061218;28;32639;-72
2021/04/04 04:38:16;;;;;;;20.15;5.00;;;;;;;;;;5062677;28;33200;-71
2021/04/04 04:40:42;;;;;;;22.30;5.50;;;;;;;;;;5069438;28;32139;-73
2021/04/04 04:43:09;;;;;;;21.55;4.68;;;;;;;;;;5072015;28;33170;-73
2021/04/04 04:45:35;;;;;;;21.92;5.68;;;;;;;;;;5070901;28;33417;-74
2021/04/04 04:48:02;;;;;;;20.77;5.32;;;;;;;;;;5063542;28;30695;-71
2021/04/04 04:50:28;;;;;;;18.17;4.43;;;;;;;;;;5082453;28;31988;-71
2021/04/04 04:52:55;;;;;;;23.83;4.95;;;;;;;;;;5080858;28;31172;-74
2021/04/04 04:55:21;;;;;;;21.15;4.88;;;;;;;;;;5074115;28;30991;-71
2021/04/04 04:57:47;;;;;;;23.67;5.88;;;;;;;;;;5059744;28;31860;-73
2021/04/04 05:00:13;;;;;;;15.90;4.75;;;;;;;;;;5054078;28;33041;-73
2021/04/04 05:02:40;;;;;;;23.75;5.38;;;;;;;;;;5071833;28;32199;-73
2021/04/04 05:05:07;;;;;;;16.55;5.03;;;;;;;;;;5068985;28;32641;-71
2021/04/04 05:07:33;;;;;;;15.98;4.72;;;;;;;;;;5069351;28;32284;-73
2021/04/04 05:10:00;;;;;;;18.00;5.05;;;;;;;;;;5080270;28;31702;-73
2021/04/04 05:12:26;;;;;;;18.98;5.15;;;;;;;;;;5080823;28;32904;-72
2021/04/04 05:14:53;;;;;;;18.13;5.55;;;;;;;;;;5081372;28;32469;-73
2021/04/04 05:17:18;;;;;;;15.43;6.13;;;;;;;;;;5080913;28;32354;-71
2021/04/04 05:19:44;;;;;;;15.77;5.28;;;;;;;;;;5080805;28;31676;-74
2021/04/04 05:22:10;;;;;;;18.73;6.43;;;;;;;;;;5074141;28;32907;-73
2021/04/04 05:24:36;;;;;;;20.17;6.13;;;;;;;;;;5067049;28;32633;-74
2021/04/04 05:27:02;;;;;;;14.43;5.43;;;;;;;;;;5079526;28;32320;-73
2021/04/04 05:29:28;;;;;;;19.20;7.25;;;;;;;;;;5079181;28;31523;-72
2021/04/04 05:31:54;;;;;;;22.48;7.47;;;;;;;;;;5080229;28;32067;-72
2021/04/04 05:34:21;;;;;;;24.65;6.45;;;;;;;;;;5080651;28;33538;-71
2021/04/04 05:36:57;;;;;;;19.67;6.18;;;;;;;;;;5080879;28;32113;-71
2021/04/04 05:39:25;;;;;;;17.27;5.85;;;;;;;;;;5081130;28;31970;-72
2021/04/04 05:41:52;;;;;;;29.05;7.55;;;;;;;;;;5079333;28;30457;-71
2021/04/04 05:44:20;;;;;;;24.50;7.13;;;;;;;;;;5080567;28;32670;-71
2021/04/04 05:46:51;;;;;;;23.20;7.55;;;;;;;;;;5080821;28;31625;-71
2021/04/04 05:49:18;;;;;;;23.48;7.63;;;;;;;;;;5080946;28;32038;-73
2021/04/04 05:52:03;;;;;;;19.95;8.18;;;;;;;;;;5079146;28;30296;-73
2021/04/04 05:54:28;;;;;;;27.65;7.80;;;;;;;;;;5080815;28;32328;-72
2021/04/04 05:56:58;;;;;;;22.95;7.90;;;;;;;;;;5080748;28;31902;-72
2021/04/04 05:59:24;;;;;;;19.05;8.05;;;;;;;;;;5080940;28;32087;-72
2021/04/04 06:02:15;;;;;;;21.38;7.10;;;;;;;;;;5080481;28;31860;-72
2021/04/04 06:04:44;;;;;;;16.23;8.30;;;;;;;;;;5081752;28;32731;-71
2021/04/04 06:07:28;;;;;;;24.35;9.68;;;;;;;;;;5080931;28;33166;-73
2021/04/04 06:10:11;;;;;;;18.70;8.90;;;;;;;;;;5080031;28;37782;-74
2021/04/04 06:12:43;;;;;;;23.60;10.35;;;;;;;;;;5080099;28;32926;-72
2021/04/04 06:15:26;;;;;;;29.45;9.60;;;;;;;;;;5081181;28;33135;-72
2021/04/04 06:17:51;;;;;;;19.60;9.60;;;;;;;;;;5080494;28;32242;-71
2021/04/04 06:20:41;;;;;;;30.38;10.02;;;;;;;;;;5079970;28;32912;-70
2021/04/04 06:23:10;;;;;;;28.65;11.25;;;;;;;;;;5080284;28;32060;-71
2021/04/04 06:25:44;;;;;;;24.88;11.13;;;;;;;;;;5060522;28;32627;-72
2021/04/04 06:28:17;;;;;;;27.73;11.85;;;;;;;;;;5054051;28;32843;-72
2021/04/04 06:30:50;;;;;;;22.97;10.90;;;;;;;;;;5067610;28;33004;-72
2021/04/04 06:33:32;;;;;;;24.88;10.30;;;;;;;;;;5064762;28;31558;-72
2021/04/04 06:36:37;;;;;;;23.92;9.88;;;;;;;;;;5059593;28;32650;-73
2021/04/04 06:39:17;;;;;;;23.65;9.65;;;;;;;;;;5058508;28;32016;-73
2021/04/04 06:41:49;;;;;;;25.45;8.70;;;;;;;;;;5059088;28;32965;-70
2021/04/04 06:44:33;;;;;;;18.88;9.25;;;;;;;;;;5056297;28;30402;-71
2021/04/04 06:47:02;;;;;;;23.33;8.85;;;;;;;;;;5055540;28;32716;-71
2021/04/04 06:49:37;;;;;;;24.67;8.05;;;;;;;;;;5058257;28;31888;-71
2021/04/04 06:52:02;;;;;;;27.75;9.85;;;;;;;;;;5058464;28;31861;-70
2021/04/04 06:54:28;;;;;;;23.27;9.05;;;;;;;;;;5067226;28;31976;-71
2021/04/04 06:57:12;;;;;;;33.67;9.30;;;;;;;;;;5059840;28;32990;-82
2021/04/04 07:00:00;;;;;;;17.75;8.18;;;;;;;;;;5028649;28;32422;-72
2021/04/04 07:02:31;;;;;;;24.88;7.45;;;;;;;;;;5047996;28;31693;-70
2021/04/04 07:05:00;;;;;;;25.17;7.15;;;;;;;;;;5051282;28;32160;-72
2021/04/04 07:07:49;;;;;;;19.65;6.38;;;;;;;;;;5050577;28;32114;-72
2021/04/04 07:10:33;;;;;;;23.15;7.10;;;;;;;;;;5049934;28;31944;-71
2021/04/04 07:12:58;;;;;;;;;;;;;;;;;;5052816;28;32964;-70
2021/04/04 07:15:46;;;;;;;15.68;5.97;;;;;;;;;;5050827;28;32424;-70
2021/04/04 07:18:31;;;;;;;17.42;6.32;;;;;;;;;;5050068;28;33681;-69
2021/04/04 07:21:27;;;;;;;18.80;5.45;;;;;;;;;;5054160;28;32291;-70
2021/04/04 07:24:04;;;;;;;20.23;4.90;;;;;;;;;;5066983;28;32868;-72
2021/04/04 07:26:40;;;;;;;20.35;6.90;;;;;;;;;;5053512;28;32166;-71
2021/04/04 07:29:20;;;;;;;17.17;4.97;;;;;;;;;;5050942;28;32538;-73
2021/04/04 07:31:49;;;;;;;15.32;5.40;;;;;;;;;;5051401;28;32743;-70
2021/04/04 07:34:22;;;;;;;18.45;5.20;;;;;;;;;;5052638;28;20045;-72
2021/04/04 07:37:02;;;;;;;23.05;6.05;;;;;;;;;;5051081;28;30801;-70
2021/04/04 07:39:31;;;;;;;16.38;5.25;;;;;;;;;;5050657;28;32584;-71
2021/04/04 07:42:07;;;;;;;16.92;5.68;;;;;;;;;;5051376;28;32293;-70
2021/04/04 07:44:39;;;;;;;14.25;4.50;;;;;;;;;;5049219;28;32464;-70
2021/04/04 07:47:07;;;;;;;23.08;6.60;;;;;;;;;;5051029;28;32623;-72
2021/04/04 07:49:40;;;;;;;15.48;4.88;;;;;;;;;;5050898;28;32631;-71
2021/04/04 07:52:13;;;;;;;23.08;4.68;;;;;;;;;;5035426;28;31761;-72
2021/04/04 07:54:56;;;;;;;19.30;5.85;;;;;;;;;;5051521;28;31759;-70
2021/04/04 07:57:32;;;;;;;17.77;4.63;;;;;;;;;;5056832;28;32910;-70
2021/04/04 08:00:04;;;;;;;19.33;4.53;;;;;;;;;;5038321;28;33803;-71
2021/04/04 08:02:35;;;;;;;15.70;5.25;;;;;;;;;;5036925;28;33620;-70
2021/04/04 08:05:05;;;;;;;18.48;4.65;;;;;;;;;;5037789;28;32934;-70
2021/04/04 08:07:49;;;;;;;17.02;4.43;;;;;;;;;;5033865;28;31914;-70
2021/04/04 08:10:18;;;;;;;13.95;4.95;;;;;;;;;;5055699;28;33261;-71
2021/04/04 08:13:08;;;;;;;16.83;4.65;;;;;;;;;;5067165;28;32981;-71
2021/04/04 08:15:40;;;;;;;19.48;4.60;;;;;;;;;;5075128;28;32036;-72
2021/04/04 08:18:05;;;;;;;11.07;3.85;;;;;;;;;;5070019;28;32725;-71
2021/04/04 08:20:34;;;;;;;12.98;4.13;;;;;;;;;;5036715;28;32528;-71
2021/04/04 08:23:01;;;;;;;12.82;4.72;;;;;;;;;;5052971;28;31078;-71
2021/04/04 08:25:34;;;;;;;15.48;4.22;;;;;;;;;;5063751;28;30567;-71
2021/04/04 08:28:05;;;;;;;17.02;4.85;;;;;;;;;;5060714;28;32423;-73
2021/04/04 08:30:30;;;;;;;14.32;3.58;;;;;;;;;;5065274;28;32183;-73
2021/04/04 08:33:02;;;;;;;11.48;3.97;;;;;;;;;;5065719;28;32095;-70
2021/04/04 08:35:30;;;;;;;8.93;3.90;;;;;;;;;;5057036;28;31901;-72
2021/04/04 08:38:03;;;;;;;18.75;4.82;;;;;;;;;;5042052;28;30699;-72
2021/04/04 08:40:28;;;;;;;14.52;3.85;;;;;;;;;;5059301;28;32517;-74
2021/04/04 08:42:54;;;;;;;12.88;3.97;;;;;;;;;;5065166;28;32018;-71
2021/04/04 08:45:23;;;;;;;14.65;4.05;;;;;;;;;;5067362;28;31639;-70
2021/04/04 08:47:50;;;;;;;13.20;3.55;;;;;;;;;;5062716;28;31670;-72
2021/04/04 08:50:19;;;;;;;17.20;4.25;;;;;;;;;;5055063;28;32641;-71
2021/04/04 08:52:54;;;;;;;17.10;4.47;;;;;;;;;;5043243;28;32202;-71
2021/04/04 08:55:23;;;;;;;13.32;4.70;;;;;;;;;;5034267;28;32512;-72
2021/04/04 08:57:50;;;;;;;15.90;4.68;;;;;;;;;;5035781;28;32726;-71
2021/04/04 09:00:17;;;;;;;22.60;4.72;;;;;;;;;;5033419;28;33647;-71
2021/04/04 09:02:52;;;;;;;9.80;3.65;;;;;;;;;;5035273;28;32353;-70
2021/04/04 09:05:20;;;;;;;18.63;4.30;;;;;;;;;;5034957;28;31855;-71
2021/04/04 09:07:46;;;;;;;6.82;3.55;;;;;;;;;;5037451;28;31615;-73
2021/04/04 09:10:15;;;;;;;11.93;3.95;;;;;;;;;;5058056;28;32339;-70
2021/04/04 09:12:42;;;;;;;18.42;4.50;;;;;;;;;;5057683;28;32258;-71
2021/04/04 09:15:08;;;;;;;12.27;4.22;;;;;;;;;;5057100;28;32802;-71
2021/04/04 09:17:34;;;;;;;9.93;4.05;;;;;;;;;;5059029;28;31857;-72
2021/04/04 09:20:02;;;;;;;13.73;3.45;;;;;;;;;;5039446;28;32472;-71
2021/04/04 09:22:28;;;;;;;17.85;4.07;;;;;;;;;;5038935;28;31806;-71
2021/04/04 09:24:55;;;;;;;17.70;4.13;;;;;;;;;;5041183;28;31749;-71
2021/04/04 09:27:23;;;;;;;11.88;3.90;;;;;;;;;;5049987;28;30412;-72
2021/04/04 09:29:51;;;;;;;14.88;3.83;;;;;;;;;;5049017;28;33054;-73
2021/04/04 09:32:26;;;;;;;13.45;4.22;;;;;;;;;;5046543;28;33126;-73
2021/04/04 09:34:52;;;;;;;21.35;4.70;;;;;;;;;;5054769;28;31825;-71
2021/04/04 09:37:22;;;;;;;23.83;4.63;;;;;;;;;;5058004;28;31468;-72
2021/04/04 09:39:48;;;;;;;18.10;3.97;;;;;;;;;;5038788;28;32518;-72
2021/04/04 09:42:13;;;;;;;20.38;3.67;;;;;;;;;;5038415;28;32114;-72
2021/04/04 09:44:39;;;;;;;17.92;4.03;;;;;;;;;;5051298;28;32702;-76
2021/04/04 09:47:05;;;;;;;9.65;3.08;;;;;;;;;;5043723;28;31814;-73
2021/04/04 09:49:31;;;;;;;14.82;3.85;;;;;;;;;;5055033;28;31540;-75
2021/04/04 09:51:56;;;;;;;13.90;3.80;;;;;;;;;;5049880;28;31135;-77
2021/04/04 09:54:22;;;;;;;13.18;3.85;;;;;;;;;;5049654;28;30753;-71
2021/04/04 09:56:55;;;;;;;13.85;3.92;;;;;;;;;;5057089;28;31691;-71
2021/04/04 09:59:27;;;;;;;12.20;3.85;;;;;;;;;;5047302;28;32724;-71
2021/04/04 10:01:53;;;;;;;13.82;3.78;;;;;;;;;;5062146;28;33035;-74
2021/04/04 10:04:19;;;;;;;23.05;5.20;;;;;;;;;;5055637;28;32503;-72
2021/04/04 10:06:57;;;;;;;11.27;3.67;;;;;;;;;;5058607;28;31343;-70
2021/04/04 10:09:35;;;;;;;18.50;3.72;;;;;;;;;;5063255;28;33202;-73
2021/04/04 10:12:02;;;;;;;13.07;3.88;;;;;;;;;;5057246;28;32329;-74
2021/04/04 10:14:28;;;;;;;16.15;4.15;;;;;;;;;;5061086;28;32418;-78
2021/04/04 10:17:09;;;;;;;13.07;3.80;;;;;;;;;;5058605;28;31980;-75
2021/04/04 10:19:54;;;;;;;16.98;3.88;;;;;;;;;;5060305;28;32965;-76
2021/04/04 10:22:20;;;;;;;13.32;3.67;;;;;;;;;;5057769;28;32270;-70
2021/04/04 10:24:47;;;;;;;15.63;4.80;;;;;;;;;;5056185;28;31994;-71
2021/04/04 10:27:17;;;;;;;15.80;4.20;;;;;;;;;;5052712;28;31978;-74
2021/04/04 10:29:43;;;;;;;13.40;3.28;;;;;;;;;;5053197;28;32556;-71
2021/04/04 10:32:09;;;;;;;15.60;4.07;;;;;;;;;;5063445;28;32272;-75
2021/04/04 10:34:41;;;;;;;15.20;3.40;;;;;;;;;;5050970;28;31994;-71
2021/04/04 10:37:07;;;;;;;11.30;3.60;;;;;;;;;;5051023;28;31883;-73
2021/04/04 10:39:32;;;;;;;17.02;4.18;;;;;;;;;;5048848;28;33126;-76
2021/04/04 10:42:11;;;;;;;18.23;7.53;;;;;;;;;;5054150;28;32039;-73
2021/04/04 10:44:36;;;;;;;17.88;6.07;;;;;;;;;;5050993;28;31993;-76
2021/04/04 10:47:16;;;;;;;17.63;7.07;;;;;;;;;;5051377;28;32354;-77
2021/04/04 10:49:42;;;;;;;23.15;8.02;;;;;;;;;;5052467;28;31318;-74
2021/04/04 10:52:08;;;;;;;25.17;9.18;;;;;;;;;;5054165;28;32188;-71
2021/04/04 10:54:34;;;;;;;25.73;12.32;;;;;;;;;;5044597;28;32523;-71
2021/04/04 10:57:00;;;;;;;27.40;12.85;;;;;;;;;;5056964;28;32924;-75
2021/04/04 10:59:25;;;;;;;26.67;11.70;;;;;;;;;;5059728;28;33767;-72
2021/04/04 11:01:52;;;;;;;26.13;14.15;;;;;;;;;;5057415;28;32243;-74
2021/04/04 11:04:18;;;;;;;29.52;11.40;;;;;;;;;;5049805;28;32426;-73
2021/04/04 11:06:44;;;;;;;24.52;11.93;;;;;;;;;;5056501;28;32656;-75
2021/04/04 11:09:09;;;;;;;34.42;14.70;;;;;;;;;;5056364;28;32021;-72
2021/04/04 11:11:35;;;;;;;24.40;13.68;;;;;;;;;;5054650;28;32030;-71
2021/04/04 11:14:01;;;;;;;18.85;8.27;;;;;;;;;;5055862;28;30843;-73
2021/04/04 11:16:27;;;;;;;17.50;6.97;;;;;;;;;;5045915;28;31772;-71
2021/04/04 11:18:55;;;;;;;19.05;7.60;;;;;;;;;;5039459;28;32562;-73
2021/04/04 11:21:24;;;;;;;16.67;8.18;;;;;;;;;;5054595;28;32146;-71
2021/04/04 11:23:50;;;;;;;15.20;6.70;;;;;;;;;;5055961;28;31801;-70
2021/04/04 11:26:26;;;;;;;17.75;7.32;;;;;;;;;;5057446;28;31882;-71
2021/04/04 11:29:10;;;;;;;18.55;6.05;;;;;;;;;;5058100;28;32529;-73
2021/04/04 11:31:46;;;;;;;15.05;6.03;;;;;;;;;;5048533;28;33199;-72
2021/04/04 11:34:26;;;;;;;11.90;5.43;;;;;;;;;;5056854;28;31423;-72
2021/04/04 11:36:52;;;;;;;19.13;5.53;;;;;;;;;;5052462;28;31964;-71
2021/04/04 11:39:18;;;;;;;19.23;6.43;;;;;;;;;;5050642;28;32629;-74
2021/04/04 11:41:47;;;;;;;13.80;5.88;;;;;;;;;;5054348;28;31864;-71
2021/04/04 11:44:17;;;;;;;21.73;8.00;;;;;;;;;;5049354;28;31743;-74
2021/04/04 11:46:47;;;;;;;15.38;7.43;;;;;;;;;;5052717;28;32492;-71
2021/04/04 11:49:28;;;;;;;14.50;7.25;;;;;;;;;;5048665;28;32300;-73
2021/04/04 11:51:54;;;;;;;20.02;7.75;;;;;;;;;;5053273;28;32329;-75
2021/04/04 11:54:49;;;;;;;12.55;5.85;;;;;;;;;;5046115;28;31211;-78
2021/04/04 11:57:21;;;;;;;20.80;6.80;;;;;;;;;;5050892;28;31917;-74
2021/04/04 11:59:50;;;;;;;21.98;7.82;;;;;;;;;;5042264;28;33309;-75
2021/04/04 12:02:17;;;;;;;21.95;7.18;;;;;;;;;;5041662;28;32203;-76
2021/04/04 12:04:47;;;;;;;13.45;6.53;;;;;;;;;;5043738;28;31845;-74
2021/04/04 12:07:14;;;;;;;19.63;6.85;;;;;;;;;;5039650;28;31663;-74
2021/04/04 12:09:40;;;;;;;21.67;6.22;;;;;;;;;;5041652;28;32243;-74
2021/04/04 12:12:07;;;;;;;21.40;7.30;;;;;;;;;;5048602;28;33225;-74
2021/04/04 12:14:44;;;;;;;16.08;6.88;;;;;;;;;;5052951;28;32042;-72
2021/04/04 12:17:10;;;;;;;15.10;5.95;;;;;;;;;;5053996;28;31945;-72
2021/04/04 12:19:35;;;;;;;11.70;6.30;;;;;;;;;;5065622;28;33327;-73
2021/04/04 12:22:01;;;;;;;15.88;6.43;;;;;;;;;;5051203;28;32435;-72
2021/04/04 12:24:46;;;;;;;18.77;7.80;;;;;;;;;;5050172;28;31571;-72
2021/04/04 12:27:12;;;;;;;18.88;9.98;;;;;;;;;;5046279;28;32072;-71
2021/04/04 12:29:48;;;;;;;13.82;9.00;;;;;;;;;;5051758;28;32560;-72
2021/04/04 12:32:18;;;;;;;20.60;9.88;;;;;;;;;;5047701;28;33200;-72
2021/04/04 12:34:44;;;;;;;17.23;9.15;;;;;;;;;;5051579;28;32727;-71
2021/04/04 12:37:12;;;;;;;21.70;10.63;;;;;;;;;;5048298;28;31447;-72
2021/04/04 12:39:38;;;;;;;15.30;8.52;;;;;;;;;;5053088;28;32336;-72
2021/04/04 12:42:08;;;;;;;19.88;10.20;;;;;;;;;;5054111;28;32288;-71
2021/04/04 12:44:34;;;;;;;23.70;9.55;;;;;;;;;;5061562;28;32963;-72
2021/04/04 12:47:04;;;;;;;21.58;8.55;;;;;;;;;;5055873;28;32189;-72
2021/04/04 12:49:30;;;;;;;13.55;8.50;;;;;;;;;;5053109;28;32711;-73
2021/04/04 12:51:56;;;;;;;21.08;8.23;;;;;;;;;;5048996;28;32205;-75
2021/04/04 12:54:23;;;;;;;25.58;9.27;;;;;;;;;;5046939;28;33336;-72
2021/04/04 12:56:49;;;;;;;17.10;8.38;;;;;;;;;;5052066;28;31696;-72
2021/04/04 12:59:15;;;;;;;22.77;10.50;;;;;;;;;;5046460;28;32577;-73
2021/04/04 13:01:44;;;;;;;25.98;9.57;;;;;;;;;;5050160;28;31987;-73
2021/04/04 13:04:16;;;;;;;22.00;11.00;;;;;;;;;;5053983;28;30600;-72
2021/04/04 13:06:42;;;;;;;18.70;9.73;;;;;;;;;;5050185;28;32333;-71
2021/04/04 13:09:10;;;;;;;20.67;9.32;;;;;;;;;;5045396;28;33564;-72
2021/04/04 13:11:35;;;;;;;20.17;8.68;;;;;;;;;;5049418;28;32300;-72
2021/04/04 13:14:01;;;;;;;23.92;9.73;;;;;;;;;;5051713;28;32892;-72
2021/04/04 13:16:27;;;;;;;24.10;12.13;;;;;;;;;;5060124;28;30442;-73
2021/04/04 13:18:54;;;;;;;19.83;11.15;;;;;;;;;;5060559;28;32593;-72
2021/04/04 13:21:21;;;;;;;25.27;10.80;;;;;;;;;;5060520;28;33225;-71
2021/04/04 13:23:48;;;;;;;23.20;10.60;;;;;;;;;;5060168;28;32022;-76
2021/04/04 13:26:19;;;;;;;26.38;10.93;;;;;;;;;;5060714;28;32166;-74
2021/04/04 13:28:44;;;;;;;23.45;10.93;;;;;;;;;;5060134;28;32843;-73
2021/04/04 13:31:16;;;;;;;29.30;10.20;;;;;;;;;;5060963;28;32260;-71
2021/04/04 13:33:43;;;;;;;18.33;9.10;;;;;;;;;;5060112;28;31964;-71
2021/04/04 13:36:12;;;;;;;18.77;8.57;;;;;;;;;;5060244;28;33782;-77
2021/04/04 13:38:38;;;;;;;24.95;10.65;;;;;;;;;;5060054;28;32304;-71
2021/04/04 13:41:05;;;;;;;18.92;9.43;;;;;;;;;;5060401;28;33287;-72
2021/04/04 13:43:39;;;;;;;19.83;9.15;;;;;;;;;;5059888;28;31523;-71
2021/04/04 13:46:05;;;;;;;16.30;8.98;;;;;;;;;;5060050;28;32514;-70
2021/04/04 13:48:31;;;;;;;22.73;8.35;;;;;;;;;;5058406;28;33550;-69
2021/04/04 13:50:57;;;;;;;18.55;8.48;;;;;;;;;;5051652;28;33145;-69
2021/04/04 13:53:25;;;;;;;18.02;8.07;;;;;;;;;;5049575;28;31963;-72
2021/04/04 13:55:52;;;;;;;20.48;7.28;;;;;;;;;;5045404;28;32327;-70
2021/04/04 13:58:34;;;;;;;14.75;6.75;;;;;;;;;;5050436;28;31976;-71
2021/04/04 14:01:01;;;;;;;16.65;5.78;;;;;;;;;;5043941;28;31914;-70
2021/04/04 14:03:27;;;;;;;11.77;5.07;;;;;;;;;;5049281;28;31770;-70
2021/04/04 14:06:03;;;;;;;15.00;5.45;;;;;;;;;;5043650;28;30563;-74
2021/04/04 14:08:29;;;;;;;11.13;5.63;;;;;;;;;;5049127;28;32628;-72
2021/04/04 14:10:55;;;;;;;10.85;5.20;;;;;;;;;;5044200;28;32558;-70
2021/04/04 14:13:20;;;;;;;10.10;4.57;;;;;;;;;;5046305;28;30942;-70
2021/04/04 14:15:46;;;;;;;7.20;4.10;;;;;;;;;;5059256;28;32041;-77
2021/04/04 14:18:12;;;;;;;7.70;3.63;;;;;;;;;;5060788;28;32526;-71
2021/04/04 14:20:37;;;;;;;14.30;4.13;;;;;;;;;;5059463;28;33313;-71
2021/04/04 14:23:03;;;;;;;13.63;3.60;;;;;;;;;;5059165;28;31976;-71
2021/04/04 14:25:29;;;;;;;12.18;4.30;;;;;;;;;;5058999;28;32066;-72
2021/04/04 14:27:54;;;;;;;10.20;3.60;;;;;;;;;;5057444;28;32677;-72
2021/04/04 14:30:20;;;;;;;9.77;3.85;;;;;;;;;;5058863;28;32209;-74
2021/04/04 14:32:46;;;;;;;10.27;4.32;;;;;;;;;;5058577;28;31781;-72
2021/04/04 14:35:12;;;;;;;8.63;3.15;;;;;;;;;;5058388;28;33014;-72
2021/04/04 14:37:37;;;;;;;13.93;4.30;;;;;;;;;;5058737;28;33635;-71
2021/04/04 14:40:03;;;;;;;10.90;4.70;;;;;;;;;;5058113;28;32254;-72